Latest Weather Observations for Mandora

IDW60801

Issued at 3:32 pm WST Thursday 28 May 2015 (issued every 30 minutes, with the page automatically refreshed every 10 minutes)

About weather observations | Map of weather stations | Latest weather observations for WA | Other Formats
Station Details ID: 004019 Name: MANDORA Lat: -19.74 Lon: 120.84 Height: 7.5 m
Data from the previous 72 hours. | See also: Recent months at Mandora
Date/Time
WST
Temp
°C
App
Temp
°C
Dew
Point
Rel
Hum
%
Delta-T
°C
Wind Press
QNH
hPa
Press
MSL
hPa
Rain
since 9 am
mm
Dir
 
Spd
km/h
Gust
km/h
Spd
kts
Gust
kts
28/03:30pm 30.7 29.3 13.5 35 10.3 N 13 19 7 10 1012.4 - 0.0
28/03:00pm 31.4 29.6 13.2 33 10.9 N 15 26 8 14 1012.3 1012.3 0.0
28/02:30pm 32.5 32.0 12.7 30 11.8 E 7 13 4 7 1012.3 - 0.0
28/02:00pm 31.6 30.4 12.9 32 11.1 NE 11 17 6 9 1012.3 - 0.0
28/01:30pm 32.5 31.8 13.2 31 11.6 ENE 9 17 5 9 1012.5 - 0.0
28/01:00pm 31.9 29.4 12.2 30 11.6 ENE 17 24 9 13 1012.8 - 0.0
28/12:30pm 31.5 29.5 12.8 32 11.1 E 15 24 8 13 1013.3 - 0.0
28/12:00pm 31.2 29.5 13.5 34 10.6 E 15 26 8 14 1013.9 1013.9 0.0
28/11:30am 30.4 28.7 13.7 36 10.0 E 15 26 8 14 1014.3 - 0.0
28/11:00am 28.9 26.9 13.9 39 9.0 E 17 26 9 14 1014.9 - 0.0
28/10:30am 27.6 25.4 14.3 44 8.0 ESE 19 28 10 15 1015.4 - 0.0
28/10:00am 27.0 24.7 14.7 47 7.4 ESE 20 32 11 17 1016.0 - 0.0
28/09:30am 25.2 23.2 14.9 52 6.2 SE 19 28 10 15 1016.1 - 0.0
28/09:00am 23.5 21.7 14.5 57 5.3 ESE 17 33 9 18 1016.2 1016.2 0.0
28/08:30am 23.0 21.3 14.6 59 5.0 ESE 17 26 9 14 1016.2 - 0.0
28/08:00am 22.0 20.4 14.9 64 4.2 ESE 17 24 9 13 1015.9 - 0.0
28/07:30am 21.3 20.4 14.9 67 3.8 ESE 13 20 7 11 1015.8 - 0.0
28/07:00am 20.7 20.2 15.0 70 3.4 ESE 11 17 6 9 1015.8 - 0.0
28/06:30am 20.5 20.1 15.1 71 3.2 SE 11 17 6 9 1015.6 - 0.0
28/06:00am 20.4 19.9 15.0 71 3.2 SE 11 17 6 9 1015.5 1015.5 0.0
28/05:30am 20.7 19.9 15.0 70 3.4 ESE 13 20 7 11 1015.1 - 0.0
28/05:00am 21.1 20.6 15.0 68 3.6 SE 11 17 6 9 1015.0 - 0.0
28/04:30am 21.1 20.6 15.0 68 3.6 SE 11 19 6 10 1014.8 - 0.0
28/04:00am 21.2 21.0 14.8 67 3.8 SSE 9 13 5 7 1015.0 - 0.0
28/03:30am 21.0 20.5 14.9 68 3.6 SE 11 17 6 9 1014.8 - 0.0
28/03:00am 20.9 20.1 15.0 69 3.5 ESE 13 19 7 10 1014.5 1014.5 0.0
28/02:30am 21.0 20.2 15.1 69 3.5 ESE 13 19 7 10 1014.6 - 0.0
28/02:00am 20.9 20.1 15.2 70 3.4 SE 13 17 7 9 1015.0 - 0.0
28/01:30am 20.8 21.0 15.8 73 3.0 SE 9 17 5 9 1015.2 - 0.0
28/01:00am 21.5 20.8 15.3 68 3.7 SSE 13 20 7 11 1015.5 - 0.0
28/12:30am 21.7 20.5 15.1 66 3.9 SSE 15 24 8 13 1015.6 - 0.0
28/12:00am 22.4 20.2 14.5 61 4.6 SSE 19 26 10 14 1015.7 1015.7 0.0
 
Date/Time
WST
Temp
°C
App
Temp
°C
Dew
Point
Rel
Hum
%
Delta-T
°C
Wind Press
QNH
hPa
Press
MSL
hPa
Rain
since 9 am
mm
Dir
 
Spd
km/h
Gust
km/h
Spd
kts
Gust
kts
27/11:30pm 22.6 20.8 14.4 60 4.8 SSE 17 28 9 15 1015.5 - 0.0
27/11:00pm 22.6 20.4 14.4 60 4.8 SSE 19 33 10 18 1015.7 - 0.0
27/10:30pm 22.6 19.8 14.4 60 4.8 SE 22 39 12 21 1015.5 - 0.0
27/10:00pm 22.9 20.5 14.5 59 5.0 SE 20 33 11 18 1015.6 - 0.0
27/09:30pm 23.2 21.9 14.7 58 5.0 SSE 15 26 8 14 1015.3 - 0.0
27/09:00pm 23.4 21.8 14.9 59 5.1 SSE 17 26 9 14 1015.2 1015.2 0.0
27/08:30pm 24.3 22.9 14.4 54 5.9 SSE 15 26 8 14 1014.9 - 0.0
27/08:00pm 25.4 22.5 13.9 49 6.8 SSE 22 32 12 17 1014.6 - 0.0
27/07:30pm 25.5 22.6 12.4 44 7.5 SSW 19 24 10 13 1014.3 - 0.0
27/07:00pm 23.7 23.9 15.7 61 4.8 WSW 9 11 5 6 1013.8 - 0.0
27/06:30pm 23.6 24.0 15.4 60 4.9 W 7 9 4 5 1013.4 - 0.0
27/06:00pm 24.5 24.5 14.3 53 6.0 W 7 9 4 5 1013.0 1013.0 0.0
27/05:30pm 25.8 25.1 11.9 42 7.9 W 7 9 4 5 1012.6 - 0.0
27/05:00pm 27.7 26.0 10.0 33 9.9 WNW 9 13 5 7 1012.3 - 0.0
27/04:30pm 29.4 26.8 7.9 26 11.7 NW 11 15 6 8 1012.1 - 0.0
27/04:00pm 30.4 27.4 7.6 24 12.4 NW 13 20 7 11 1012.0 - 0.0
27/03:30pm 31.0 27.7 8.1 24 12.6 NW 15 19 8 10 1011.9 - 0.0
27/03:00pm 30.9 27.6 8.0 24 12.6 NW 15 20 8 11 1011.8 1011.8 0.0
27/02:30pm 31.0 27.2 7.5 23 12.8 NNW 17 24 9 13 1011.8 - 0.0
27/02:00pm 32.2 28.5 6.4 20 13.9 NNW 15 20 8 11 1011.7 - 0.0
27/01:30pm 33.0 29.3 7.8 21 14.0 NNW 17 24 9 13 1011.9 - 0.0
27/01:00pm 32.9 29.4 7.0 20 14.1 NNW 15 22 8 12 1012.2 - 0.0
27/12:30pm 33.4 30.0 5.9 18 14.8 NE 13 24 7 13 1012.6 - 0.0
27/12:00pm 33.7 31.3 6.9 19 14.7 ENE 9 19 5 10 1013.1 1013.1 0.0
27/11:30am 32.9 30.1 7.0 20 14.1 ENE 11 19 6 10 1013.7 - 0.0
27/11:00am 31.7 29.5 9.3 25 12.6 E 11 19 6 10 1014.3 - 0.0
27/10:30am 30.9 28.8 9.7 27 12.0 E 11 20 6 11 1014.8 - 0.0
27/10:00am 29.5 27.1 10.1 30 11.0 E 13 20 7 11 1015.0 - 0.0
27/09:30am 27.9 25.6 10.6 34 9.8 E 13 20 7 11 1015.4 - 0.0
27/09:00am 26.3 24.6 11.2 38 8.5 ESE 11 19 6 10 1016.0 1016.0 0.0
27/08:30am 23.9 22.5 12.2 48 6.7 ESE 11 15 6 8 1015.9 - 0.0
27/08:00am 23.0 21.7 12.6 52 5.9 SE 11 19 6 10 1015.9 - 0.0
27/07:30am 22.1 20.8 12.6 55 5.4 ESE 11 15 6 8 1015.7 - 0.0
27/07:00am 21.4 20.4 12.3 56 5.1 ESE 9 13 5 7 1015.5 - 0.0
27/06:30am 21.1 20.0 12.0 56 5.1 ESE 9 13 5 7 1015.4 - 0.0
27/06:00am 21.4 20.3 12.0 55 5.3 ESE 9 13 5 7 1015.2 1015.2 0.0
27/05:30am 21.5 20.7 11.8 54 5.4 SSE 7 11 4 6 1015.1 - 0.0
27/05:00am 21.7 20.9 11.7 53 5.6 SE 7 9 4 5 1014.9 - 0.0
27/04:30am 21.9 21.0 11.3 51 5.9 SE 7 9 4 5 1015.0 - 0.0
27/04:00am 21.7 20.7 11.1 51 5.9 SSE 7 11 4 6 1014.8 - 0.0
27/03:30am 22.1 20.8 11.2 50 6.0 SE 9 13 5 7 1014.7 - 0.0
27/03:00am 21.8 20.5 11.2 51 5.9 ESE 9 13 5 7 1014.7 1014.7 0.0
27/02:30am 22.0 21.3 11.4 51 5.9 SE 6 9 3 5 1015.0 - 0.0
27/02:00am 21.5 20.9 11.8 54 5.4 SE 6 9 3 5 1015.4 - 0.0
27/01:30am 21.5 20.9 11.8 54 5.4 ESE 6 7 3 4 1015.6 - 0.0
27/01:00am 21.9 21.2 11.9 53 5.6 ESE 7 9 4 5 1015.8 - 0.0
27/12:30am 22.6 21.9 12.0 51 6.0 ESE 7 11 4 6 1015.8 - 0.0
27/12:00am 23.0 22.2 11.7 49 6.3 SE 7 9 4 5 1015.9 1015.9 0.0
 
Date/Time
WST
Temp
°C
App
Temp
°C
Dew
Point
Rel
Hum
%
Delta-T
°C
Wind Press
QNH
hPa
Press
MSL
hPa
Rain
since 9 am
mm
Dir
 
Spd
km/h
Gust
km/h
Spd
kts
Gust
kts
26/11:30pm 23.8 22.9 11.5 46 6.9 SSE 7 11 4 6 1016.4 - 0.0
26/11:00pm 24.3 22.9 10.9 43 7.5 S 9 13 5 7 1016.8 - 0.0
26/10:30pm 23.5 22.2 11.2 46 6.9 S 9 11 5 6 1016.9 - 0.0
26/10:00pm 22.8 22.4 13.0 54 5.6 SW 7 7 4 4 1017.1 - 0.0
26/09:30pm 22.8 23.6 12.7 53 5.8 CALM 0 0 0 0 1017.0 - 0.0
26/09:00pm 22.9 24.0 13.4 55 5.5 CALM 0 0 0 0 1016.9 1016.9 0.0
26/08:30pm 23.1 23.6 12.7 52 6.0 E 2 6 1 3 1016.9 - 0.0
26/08:00pm 23.5 24.3 12.5 50 6.3 CALM 0 0 0 0 1016.7 - 0.0
26/07:30pm 23.7 24.5 12.4 49 6.5 CALM 0 4 0 2 1016.5 - 0.0
26/07:00pm 24.1 23.6 12.1 47 6.8 S 6 7 3 4 1016.2 - 0.0
26/06:30pm 24.1 24.6 12.7 49 6.6 E 2 7 1 4 1015.8 - 0.0
26/06:00pm 24.3 25.1 12.6 48 6.7 CALM 0 2 0 1 1015.5 1015.5 0.0
26/05:30pm 25.2 25.2 12.4 45 7.4 S 4 6 2 3 1015.5 - 0.0
26/05:00pm 25.9 25.1 10.9 39 8.4 SSW 6 7 3 4 1015.3 - 0.0
26/04:30pm 27.0 25.9 9.8 34 9.5 W 6 7 3 4 1015.3 - 0.0
26/04:00pm 27.5 26.5 10.2 34 9.7 NW 6 9 3 5 1015.1 - 0.0
26/03:30pm 27.0 25.8 10.2 35 9.4 WNW 7 11 4 6 1015.2 - 0.0
26/03:00pm 27.9 25.0 6.6 26 11.2 N 11 20 6 11 1015.2 1015.2 0.0
26/02:30pm 28.7 27.7 8.9 29 10.9 ENE 4 9 2 5 1015.1 - 0.0
26/02:00pm 27.8 25.9 7.6 28 10.8 E 7 9 4 5 1015.1 - 0.0
26/01:30pm 25.6 24.4 9.4 36 8.9 NNW 6 9 3 5 1015.6 - 0.0
26/01:00pm 26.5 24.0 8.0 31 9.9 N 11 17 6 9 1015.6 - 0.0
26/12:30pm 26.8 25.2 8.7 32 9.9 N 7 9 4 5 1016.0 - 0.0
26/12:00pm 26.2 23.1 8.7 33 9.5 N 15 19 8 10 1016.4 1016.4 0.0
26/11:30am 27.0 23.7 9.4 33 9.7 NNE 17 24 9 13 1016.8 - 0.0
26/11:00am 27.9 23.8 7.7 28 10.9 NE 19 20 10 11 1017.1 - 0.0
26/10:30am 26.9 23.3 6.9 28 10.6 E 15 22 8 12 1017.1 - 0.0
26/10:00am 27.8 24.8 7.6 28 10.8 E 13 24 7 13 1017.6 - 0.0
26/09:30am 26.4 23.6 8.4 32 9.7 ESE 13 20 7 11 1017.7 - 0.0
26/09:00am 25.3 22.4 8.3 34 9.1 ESE 13 24 7 13 1017.8 1017.8 0.0
26/08:30am 23.0 20.2 8.7 40 7.6 SE 13 20 7 11 1017.9 - 0.0
26/08:00am 21.9 19.2 9.1 44 6.8 ESE 13 20 7 11 1017.6 - 0.0
26/07:30am 21.0 18.8 9.3 47 6.2 ESE 11 17 6 9 1017.4 - 0.0
26/07:00am 20.7 18.5 9.3 48 6.1 SE 11 17 6 9 1017.2 - 0.0
26/06:30am 20.4 18.5 9.0 48 6.0 SE 9 13 5 7 1017.0 - 0.0
26/06:00am 20.6 18.7 9.2 48 6.0 ESE 9 15 5 8 1016.7 1016.7 0.0
26/05:30am 20.9 18.7 9.2 47 6.2 ESE 11 17 6 9 1016.3 - 0.0
26/05:00am 20.9 19.1 9.5 48 6.1 SE 9 13 5 7 1016.3 - 0.0
26/04:30am 20.9 19.1 9.5 48 6.1 ESE 9 15 5 8 1016.0 - 0.0
26/04:00am 20.8 19.1 9.7 49 5.9 E 9 13 5 7 1016.0 - 0.0
26/03:30am 21.1 18.6 9.7 48 6.1 ESE 13 19 7 10 1015.7 - 0.0
26/03:00am 21.3 18.7 9.5 47 6.3 SE 13 19 7 10 1016.1 1016.1 0.0
26/02:30am 21.4 18.9 9.6 47 6.3 SSE 13 22 7 12 1016.1 - 0.0
26/02:00am 21.0 19.3 9.9 49 6.0 SE 9 13 5 7 1016.5 - 0.0
26/01:30am 20.8 18.8 10.0 50 5.8 ESE 11 17 6 9 1016.8 - 0.0
26/01:00am 20.9 18.7 9.5 48 6.1 ESE 11 17 6 9 1017.0 - 0.0
26/12:30am 21.0 18.7 8.9 46 6.4 SE 11 15 6 8 1017.0 - 0.0
26/12:00am 21.2 19.2 8.8 45 6.5 SE 9 11 5 6 1017.3 1017.3 0.0
 
Date/Time
WST
Temp
°C
App
Temp
°C
Dew
Point
Rel
Hum
%
Delta-T
°C
Wind Press
QNH
hPa
Press
MSL
hPa
Rain
since 9 am
mm
Dir
 
Spd
km/h
Gust
km/h
Spd
kts
Gust
kts
25/11:30pm 21.6 19.9 8.5 43 6.9 SE 7 11 4 6 1017.3 - 0.0
25/11:00pm 22.4 20.6 8.1 40 7.5 SSE 7 9 4 5 1017.3 - 0.0
25/10:30pm 23.3 21.0 7.4 36 8.3 SE 9 13 5 7 1017.2 - 0.0
25/10:00pm 23.9 20.9 7.5 35 8.6 SE 13 19 7 10 1017.1 - 0.0
25/09:30pm 23.2 21.1 8.1 38 8.0 SE 9 11 5 6 1017.2 - 0.0
25/09:00pm 23.0 21.2 7.9 38 7.9 E 7 13 4 7 1017.1 1017.1 0.0
25/08:30pm 23.3 21.7 8.2 38 8.0 ENE 6 7 3 4 1017.2 - 0.0
25/08:00pm 23.9 21.5 7.1 34 8.7 ESE 9 13 5 7 1016.4 - 0.0
25/07:30pm 23.8 21.9 7.4 35 8.6 E 7 11 4 6 1016.6 - 0.0
25/07:00pm 23.8 22.0 7.8 36 8.4 E 7 9 4 5 1016.1 - 0.0
25/06:30pm 24.6 22.6 7.3 33 9.1 E 7 11 4 6 1015.6 - 0.0
25/06:00pm 25.0 23.0 7.2 32 9.3 E 7 11 4 6 1015.4 1015.4 0.0
25/05:30pm 25.8 23.4 6.9 30 9.9 ENE 9 15 5 8 1015.0 - 0.0
25/05:00pm 26.4 24.1 7.4 30 10.1 E 9 15 5 8 1014.9 - 0.0
25/04:30pm 26.8 23.8 7.8 30 10.2 E 13 20 7 11 1014.8 - 0.0
25/04:00pm 27.0 24.5 8.0 30 10.2 E 11 20 6 11 1014.4 - 0.0

Other Formats:

Comma delimited format used in spreadsheet applications
http://www.bom.gov.au/fwo/IDW60801/IDW60801.94200.axf

JavaScript Object Notation format (JSON) in row-major order
http://www.bom.gov.au/fwo/IDW60801/IDW60801.94200.json